sensor_id;sensor_type;location;lat;lon;timestamp;temperature;humidity
13880;DHT22;7010;48.200;16.332;2023-03-08T00:01:19;5.60;99.90
13880;DHT22;7010;48.200;16.332;2023-03-08T00:03:51;5.70;99.90
13880;DHT22;7010;48.200;16.332;2023-03-08T00:06:20;5.80;99.90
13880;DHT22;7010;48.200;16.332;2023-03-08T00:08:52;5.90;99.90
13880;DHT22;7010;48.200;16.332;2023-03-08T00:11:21;6.00;99.90
13880;DHT22;7010;48.200;16.332;2023-03-08T00:13:49;6.20;99.90
13880;DHT22;7010;48.200;16.332;2023-03-08T00:16:19;6.30;99.90
13880;DHT22;7010;48.200;16.332;2023-03-08T00:18:47;6.30;99.90
13880;DHT22;7010;48.200;16.332;2023-03-08T00:21:17;6.30;99.90
13880;DHT22;7010;48.200;16.332;2023-03-08T00:23:46;6.40;99.90
13880;DHT22;7010;48.200;16.332;2023-03-08T00:26:14;6.40;99.90
13880;DHT22;7010;48.200;16.332;2023-03-08T00:28:44;6.40;99.90
13880;DHT22;7010;48.200;16.332;2023-03-08T00:31:13;6.40;99.90
13880;DHT22;7010;48.200;16.332;2023-03-08T00:33:42;6.40;99.90
13880;DHT22;7010;48.200;16.332;2023-03-08T00:36:13;6.40;99.90
13880;DHT22;7010;48.200;16.332;2023-03-08T00:38:42;6.40;99.90
13880;DHT22;7010;48.200;16.332;2023-03-08T00:41:11;6.40;99.90
13880;DHT22;7010;48.200;16.332;2023-03-08T00:43:39;6.40;99.90
13880;DHT22;7010;48.200;16.332;2023-03-08T00:46:08;6.40;99.90
13880;DHT22;7010;48.200;16.332;2023-03-08T00:48:37;6.40;99.90
13880;DHT22;7010;48.200;16.332;2023-03-08T00:51:07;6.50;99.90
13880;DHT22;7010;48.200;16.332;2023-03-08T00:53:36;6.50;99.90
13880;DHT22;7010;48.200;16.332;2023-03-08T00:56:05;6.50;99.90
13880;DHT22;7010;48.200;16.332;2023-03-08T00:58:33;6.50;99.90
13880;DHT22;7010;48.200;16.332;2023-03-08T01:01:03;6.50;99.90
13880;DHT22;7010;48.200;16.332;2023-03-08T01:03:32;6.40;99.90
13880;DHT22;7010;48.200;16.332;2023-03-08T01:06:07;6.50;99.90
13880;DHT22;7010;48.200;16.332;2023-03-08T01:08:36;6.40;99.90
13880;DHT22;7010;48.200;16.332;2023-03-08T01:11:05;6.50;99.90
13880;DHT22;7010;48.200;16.332;2023-03-08T01:13:34;6.40;99.90
13880;DHT22;7010;48.200;16.332;2023-03-08T01:16:03;6.40;99.90
13880;DHT22;7010;48.200;16.332;2023-03-08T01:18:31;6.40;99.90
13880;DHT22;7010;48.200;16.332;2023-03-08T01:21:01;6.40;99.90
13880;DHT22;7010;48.200;16.332;2023-03-08T01:23:31;6.30;99.90
13880;DHT22;7010;48.200;16.332;2023-03-08T01:26:01;6.30;99.90
13880;DHT22;7010;48.200;16.332;2023-03-08T01:28:29;6.30;99.90
13880;DHT22;7010;48.200;16.332;2023-03-08T01:31:00;6.30;99.90
13880;DHT22;7010;48.200;16.332;2023-03-08T01:33:30;6.30;99.90
13880;DHT22;7010;48.200;16.332;2023-03-08T01:36:01;6.20;99.90
13880;DHT22;7010;48.200;16.332;2023-03-08T01:38:31;6.20;99.90
13880;DHT22;7010;48.200;16.332;2023-03-08T01:41:00;6.20;99.90
13880;DHT22;7010;48.200;16.332;2023-03-08T01:43:30;6.20;99.90
13880;DHT22;7010;48.200;16.332;2023-03-08T01:46:10;6.20;99.90
13880;DHT22;7010;48.200;16.332;2023-03-08T01:48:44;6.20;99.90
13880;DHT22;7010;48.200;16.332;2023-03-08T01:51:16;6.10;99.90
13880;DHT22;7010;48.200;16.332;2023-03-08T01:53:49;6.10;99.90
13880;DHT22;7010;48.200;16.332;2023-03-08T01:56:18;6.10;99.90
13880;DHT22;7010;48.200;16.332;2023-03-08T01:58:49;6.10;99.90
13880;DHT22;7010;48.200;16.332;2023-03-08T02:01:19;6.10;99.90
13880;DHT22;7010;48.200;16.332;2023-03-08T02:03:48;6.00;99.90
13880;DHT22;7010;48.200;16.332;2023-03-08T02:06:18;6.00;99.90
13880;DHT22;7010;48.200;16.332;2023-03-08T02:08:49;6.00;99.90
13880;DHT22;7010;48.200;16.332;2023-03-08T02:11:20;6.00;99.90
13880;DHT22;7010;48.200;16.332;2023-03-08T02:13:49;6.00;99.90
13880;DHT22;7010;48.200;16.332;2023-03-08T02:16:18;6.00;99.90
13880;DHT22;7010;48.200;16.332;2023-03-08T02:18:51;6.00;99.90
13880;DHT22;7010;48.200;16.332;2023-03-08T02:21:20;6.00;99.90
13880;DHT22;7010;48.200;16.332;2023-03-08T02:23:50;6.00;99.90
13880;DHT22;7010;48.200;16.332;2023-03-08T02:26:22;6.00;99.90
13880;DHT22;7010;48.200;16.332;2023-03-08T02:28:50;6.10;99.90
13880;DHT22;7010;48.200;16.332;2023-03-08T02:31:18;6.00;99.90
13880;DHT22;7010;48.200;16.332;2023-03-08T02:33:47;6.00;99.90
13880;DHT22;7010;48.200;16.332;2023-03-08T02:36:15;6.00;99.90
13880;DHT22;7010;48.200;16.332;2023-03-08T02:38:44;6.00;99.90
13880;DHT22;7010;48.200;16.332;2023-03-08T02:41:14;6.00;99.90
13880;DHT22;7010;48.200;16.332;2023-03-08T02:43:42;6.00;99.90
13880;DHT22;7010;48.200;16.332;2023-03-08T02:46:11;6.00;99.90
13880;DHT22;7010;48.200;16.332;2023-03-08T02:48:39;6.00;99.90
13880;DHT22;7010;48.200;16.332;2023-03-08T02:51:08;5.90;99.90
13880;DHT22;7010;48.200;16.332;2023-03-08T02:53:36;5.90;99.90
13880;DHT22;7010;48.200;16.332;2023-03-08T02:56:05;5.90;99.90
13880;DHT22;7010;48.200;16.332;2023-03-08T02:58:34;5.90;99.90
13880;DHT22;7010;48.200;16.332;2023-03-08T03:01:02;5.90;99.90
13880;DHT22;7010;48.200;16.332;2023-03-08T03:03:31;5.90;99.90
13880;DHT22;7010;48.200;16.332;2023-03-08T03:05:59;5.90;99.90
13880;DHT22;7010;48.200;16.332;2023-03-08T03:08:28;5.80;99.90
13880;DHT22;7010;48.200;16.332;2023-03-08T03:10:57;5.80;99.90
13880;DHT22;7010;48.200;16.332;2023-03-08T03:13:25;5.90;99.90
13880;DHT22;7010;48.200;16.332;2023-03-08T03:15:55;5.90;99.90
13880;DHT22;7010;48.200;16.332;2023-03-08T03:18:23;5.80;99.90
13880;DHT22;7010;48.200;16.332;2023-03-08T03:20:52;5.80;99.90
13880;DHT22;7010;48.200;16.332;2023-03-08T03:23:20;5.90;99.90
13880;DHT22;7010;48.200;16.332;2023-03-08T03:25:51;5.80;99.90
13880;DHT22;7010;48.200;16.332;2023-03-08T03:28:19;5.80;99.90
13880;DHT22;7010;48.200;16.332;2023-03-08T03:30:48;5.90;99.90
13880;DHT22;7010;48.200;16.332;2023-03-08T03:33:18;5.80;99.90
13880;DHT22;7010;48.200;16.332;2023-03-08T03:35:46;5.90;99.90
13880;DHT22;7010;48.200;16.332;2023-03-08T03:38:14;5.90;99.90
13880;DHT22;7010;48.200;16.332;2023-03-08T03:40:42;5.90;99.90
13880;DHT22;7010;48.200;16.332;2023-03-08T03:43:11;5.90;99.90
13880;DHT22;7010;48.200;16.332;2023-03-08T03:45:39;6.00;99.90
13880;DHT22;7010;48.200;16.332;2023-03-08T03:48:07;6.00;99.90
13880;DHT22;7010;48.200;16.332;2023-03-08T03:50:40;6.00;99.90
13880;DHT22;7010;48.200;16.332;2023-03-08T03:53:08;6.00;99.90
13880;DHT22;7010;48.200;16.332;2023-03-08T03:55:37;6.00;99.90
13880;DHT22;7010;48.200;16.332;2023-03-08T03:58:05;6.00;99.90
13880;DHT22;7010;48.200;16.332;2023-03-08T04:00:33;6.00;99.90
13880;DHT22;7010;48.200;16.332;2023-03-08T04:03:02;6.00;99.90
13880;DHT22;7010;48.200;16.332;2023-03-08T04:05:30;6.00;99.90
13880;DHT22;7010;48.200;16.332;2023-03-08T04:08:00;6.00;99.90
13880;DHT22;7010;48.200;16.332;2023-03-08T04:10:30;6.00;99.90
13880;DHT22;7010;48.200;16.332;2023-03-08T04:12:58;6.00;99.90
13880;DHT22;7010;48.200;16.332;2023-03-08T04:15:26;6.00;99.90
13880;DHT22;7010;48.200;16.332;2023-03-08T04:17:56;6.00;99.90
13880;DHT22;7010;48.200;16.332;2023-03-08T04:20:29;6.00;99.90
13880;DHT22;7010;48.200;16.332;2023-03-08T04:22:57;6.00;99.90
13880;DHT22;7010;48.200;16.332;2023-03-08T04:25:27;6.00;99.90
13880;DHT22;7010;48.200;16.332;2023-03-08T04:27:56;6.10;99.90
13880;DHT22;7010;48.200;16.332;2023-03-08T04:30:26;6.10;99.90
13880;DHT22;7010;48.200;16.332;2023-03-08T04:32:56;6.10;99.90
13880;DHT22;7010;48.200;16.332;2023-03-08T04:35:25;6.10;99.90
13880;DHT22;7010;48.200;16.332;2023-03-08T04:37:53;6.10;99.90
13880;DHT22;7010;48.200;16.332;2023-03-08T04:40:24;6.10;99.90
13880;DHT22;7010;48.200;16.332;2023-03-08T04:42:54;6.00;99.90
13880;DHT22;7010;48.200;16.332;2023-03-08T04:45:23;6.00;99.90
13880;DHT22;7010;48.200;16.332;2023-03-08T04:47:51;5.90;99.90
13880;DHT22;7010;48.200;16.332;2023-03-08T04:50:20;5.90;99.90
13880;DHT22;7010;48.200;16.332;2023-03-08T04:52:48;5.90;99.90
13880;DHT22;7010;48.200;16.332;2023-03-08T04:55:17;5.90;99.90
13880;DHT22;7010;48.200;16.332;2023-03-08T04:57:45;5.90;99.90
13880;DHT22;7010;48.200;16.332;2023-03-08T05:00:15;5.90;99.90
13880;DHT22;7010;48.200;16.332;2023-03-08T05:02:44;5.80;99.90
13880;DHT22;7010;48.200;16.332;2023-03-08T05:05:12;5.70;99.90
13880;DHT22;7010;48.200;16.332;2023-03-08T05:07:40;5.70;99.90
13880;DHT22;7010;48.200;16.332;2023-03-08T05:10:09;5.70;99.90
13880;DHT22;7010;48.200;16.332;2023-03-08T05:12:38;5.70;99.90
13880;DHT22;7010;48.200;16.332;2023-03-08T05:15:07;5.80;99.90
13880;DHT22;7010;48.200;16.332;2023-03-08T05:17:37;5.70;99.90
13880;DHT22;7010;48.200;16.332;2023-03-08T05:20:06;5.70;99.90
13880;DHT22;7010;48.200;16.332;2023-03-08T05:22:35;5.70;99.90
13880;DHT22;7010;48.200;16.332;2023-03-08T05:25:24;5.70;99.90
13880;DHT22;7010;48.200;16.332;2023-03-08T05:27:52;5.70;99.90
13880;DHT22;7010;48.200;16.332;2023-03-08T05:30:21;5.60;99.90
13880;DHT22;7010;48.200;16.332;2023-03-08T05:32:50;5.60;99.90
13880;DHT22;7010;48.200;16.332;2023-03-08T05:35:18;5.60;99.90
13880;DHT22;7010;48.200;16.332;2023-03-08T05:37:47;5.60;99.90
13880;DHT22;7010;48.200;16.332;2023-03-08T05:40:15;5.60;99.90
13880;DHT22;7010;48.200;16.332;2023-03-08T05:42:43;5.60;99.90
13880;DHT22;7010;48.200;16.332;2023-03-08T05:45:12;5.60;99.90
13880;DHT22;7010;48.200;16.332;2023-03-08T05:47:40;5.50;99.90
13880;DHT22;7010;48.200;16.332;2023-03-08T05:50:11;5.50;99.90
13880;DHT22;7010;48.200;16.332;2023-03-08T05:52:39;5.50;99.90
13880;DHT22;7010;48.200;16.332;2023-03-08T05:55:09;5.40;99.90
13880;DHT22;7010;48.200;16.332;2023-03-08T05:57:38;5.40;99.90
13880;DHT22;7010;48.200;16.332;2023-03-08T06:00:08;5.40;99.90
13880;DHT22;7010;48.200;16.332;2023-03-08T06:02:39;5.40;99.90
13880;DHT22;7010;48.200;16.332;2023-03-08T06:05:08;5.40;99.90
13880;DHT22;7010;48.200;16.332;2023-03-08T06:07:37;5.40;99.90
13880;DHT22;7010;48.200;16.332;2023-03-08T06:10:07;5.40;99.90
13880;DHT22;7010;48.200;16.332;2023-03-08T06:12:35;5.40;99.90
13880;DHT22;7010;48.200;16.332;2023-03-08T06:15:05;5.40;99.90
13880;DHT22;7010;48.200;16.332;2023-03-08T06:17:33;5.50;99.90
13880;DHT22;7010;48.200;16.332;2023-03-08T06:20:02;5.50;99.90
13880;DHT22;7010;48.200;16.332;2023-03-08T06:22:30;5.50;99.90
13880;DHT22;7010;48.200;16.332;2023-03-08T06:25:00;5.60;99.90
13880;DHT22;7010;48.200;16.332;2023-03-08T06:27:29;5.60;99.90
13880;DHT22;7010;48.200;16.332;2023-03-08T06:29:57;5.70;99.90
13880;DHT22;7010;48.200;16.332;2023-03-08T06:32:25;5.80;99.90
13880;DHT22;7010;48.200;16.332;2023-03-08T06:34:53;6.00;99.90
13880;DHT22;7010;48.200;16.332;2023-03-08T06:37:22;6.00;99.90
13880;DHT22;7010;48.200;16.332;2023-03-08T06:39:50;6.00;99.90
13880;DHT22;7010;48.200;16.332;2023-03-08T06:42:19;6.10;99.90
13880;DHT22;7010;48.200;16.332;2023-03-08T06:45:04;6.10;99.90
13880;DHT22;7010;48.200;16.332;2023-03-08T06:47:33;6.10;99.90
13880;DHT22;7010;48.200;16.332;2023-03-08T06:50:01;6.20;99.90
13880;DHT22;7010;48.200;16.332;2023-03-08T06:52:29;6.20;99.90
13880;DHT22;7010;48.200;16.332;2023-03-08T06:55:05;6.20;99.90
13880;DHT22;7010;48.200;16.332;2023-03-08T06:57:34;6.30;99.90
13880;DHT22;7010;48.200;16.332;2023-03-08T07:00:03;6.30;99.90
13880;DHT22;7010;48.200;16.332;2023-03-08T07:02:33;6.40;99.90
13880;DHT22;7010;48.200;16.332;2023-03-08T07:05:01;6.40;99.90
13880;DHT22;7010;48.200;16.332;2023-03-08T07:07:29;6.50;99.90
13880;DHT22;7010;48.200;16.332;2023-03-08T07:09:58;6.50;99.90
13880;DHT22;7010;48.200;16.332;2023-03-08T07:12:26;6.60;99.90
13880;DHT22;7010;48.200;16.332;2023-03-08T07:14:58;6.60;99.90
13880;DHT22;7010;48.200;16.332;2023-03-08T07:17:26;6.70;99.90
13880;DHT22;7010;48.200;16.332;2023-03-08T07:19:54;6.70;99.90
13880;DHT22;7010;48.200;16.332;2023-03-08T07:22:23;6.80;99.90
13880;DHT22;7010;48.200;16.332;2023-03-08T07:24:51;7.00;99.90
13880;DHT22;7010;48.200;16.332;2023-03-08T07:27:19;7.00;99.90
13880;DHT22;7010;48.200;16.332;2023-03-08T07:29:48;7.10;99.90
13880;DHT22;7010;48.200;16.332;2023-03-08T07:32:18;7.10;99.90
13880;DHT22;7010;48.200;16.332;2023-03-08T07:34:46;7.10;99.90
13880;DHT22;7010;48.200;16.332;2023-03-08T07:37:17;7.10;99.90
13880;DHT22;7010;48.200;16.332;2023-03-08T07:39:45;7.20;99.90
13880;DHT22;7010;48.200;16.332;2023-03-08T07:42:13;7.30;99.90
13880;DHT22;7010;48.200;16.332;2023-03-08T07:44:44;7.40;99.90
13880;DHT22;7010;48.200;16.332;2023-03-08T07:47:13;7.40;99.90
13880;DHT22;7010;48.200;16.332;2023-03-08T07:49:43;7.50;99.90
13880;DHT22;7010;48.200;16.332;2023-03-08T07:52:14;7.60;99.90
13880;DHT22;7010;48.200;16.332;2023-03-08T07:54:43;7.70;99.90
13880;DHT22;7010;48.200;16.332;2023-03-08T07:57:14;7.80;99.90
13880;DHT22;7010;48.200;16.332;2023-03-08T07:59:43;7.90;99.90
13880;DHT22;7010;48.200;16.332;2023-03-08T08:02:12;7.90;99.90
13880;DHT22;7010;48.200;16.332;2023-03-08T08:04:40;8.00;99.90
13880;DHT22;7010;48.200;16.332;2023-03-08T08:07:13;8.10;99.90
13880;DHT22;7010;48.200;16.332;2023-03-08T08:09:42;8.20;99.90
13880;DHT22;7010;48.200;16.332;2023-03-08T08:12:10;8.40;99.80
13880;DHT22;7010;48.200;16.332;2023-03-08T08:14:39;8.40;99.50
13880;DHT22;7010;48.200;16.332;2023-03-08T08:17:07;8.40;99.20
13880;DHT22;7010;48.200;16.332;2023-03-08T08:19:39;8.60;99.40
13880;DHT22;7010;48.200;16.332;2023-03-08T08:22:07;8.70;98.40
13880;DHT22;7010;48.200;16.332;2023-03-08T08:24:37;8.80;98.00
13880;DHT22;7010;48.200;16.332;2023-03-08T08:27:05;8.90;98.00
13880;DHT22;7010;48.200;16.332;2023-03-08T08:29:35;8.90;97.80
13880;DHT22;7010;48.200;16.332;2023-03-08T08:32:04;9.00;97.10
13880;DHT22;7010;48.200;16.332;2023-03-08T08:34:32;9.10;97.50
13880;DHT22;7010;48.200;16.332;2023-03-08T08:37:01;9.20;96.70
13880;DHT22;7010;48.200;16.332;2023-03-08T08:39:29;9.30;96.40
13880;DHT22;7010;48.200;16.332;2023-03-08T08:41:59;9.40;96.70
13880;DHT22;7010;48.200;16.332;2023-03-08T08:44:27;9.60;95.90
13880;DHT22;7010;48.200;16.332;2023-03-08T08:46:56;9.70;96.00
13880;DHT22;7010;48.200;16.332;2023-03-08T08:49:25;9.80;95.40
13880;DHT22;7010;48.200;16.332;2023-03-08T08:51:53;10.00;94.80
13880;DHT22;7010;48.200;16.332;2023-03-08T08:54:22;10.20;94.20
13880;DHT22;7010;48.200;16.332;2023-03-08T08:56:50;10.20;93.30
13880;DHT22;7010;48.200;16.332;2023-03-08T08:59:20;10.20;93.30
13880;DHT22;7010;48.200;16.332;2023-03-08T09:01:48;10.20;93.30
13880;DHT22;7010;48.200;16.332;2023-03-08T09:04:17;10.20;93.30
13880;DHT22;7010;48.200;16.332;2023-03-08T09:06:46;10.20;93.20
13880;DHT22;7010;48.200;16.332;2023-03-08T09:09:16;10.30;93.60
13880;DHT22;7010;48.200;16.332;2023-03-08T09:11:45;10.40;93.00
13880;DHT22;7010;48.200;16.332;2023-03-08T09:14:23;10.50;92.90
13880;DHT22;7010;48.200;16.332;2023-03-08T09:16:51;10.50;92.20
13880;DHT22;7010;48.200;16.332;2023-03-08T09:19:19;10.60;92.70
13880;DHT22;7010;48.200;16.332;2023-03-08T09:21:48;10.50;92.40
13880;DHT22;7010;48.200;16.332;2023-03-08T09:24:16;10.50;92.40
13880;DHT22;7010;48.200;16.332;2023-03-08T09:26:45;10.50;92.50
13880;DHT22;7010;48.200;16.332;2023-03-08T09:29:13;10.50;92.20
13880;DHT22;7010;48.200;16.332;2023-03-08T09:31:43;10.50;92.20
13880;DHT22;7010;48.200;16.332;2023-03-08T09:34:12;10.60;92.30
13880;DHT22;7010;48.200;16.332;2023-03-08T09:36:41;10.70;92.30
13880;DHT22;7010;48.200;16.332;2023-03-08T09:39:10;11.00;92.30
13880;DHT22;7010;48.200;16.332;2023-03-08T09:41:50;11.10;91.90
13880;DHT22;7010;48.200;16.332;2023-03-08T09:44:43;11.20;91.70
13880;DHT22;7010;48.200;16.332;2023-03-08T09:47:36;11.20;91.40
13880;DHT22;7010;48.200;16.332;2023-03-08T09:50:17;11.30;91.30
13880;DHT22;7010;48.200;16.332;2023-03-08T09:52:48;11.30;91.00
13880;DHT22;7010;48.200;16.332;2023-03-08T09:55:20;11.40;90.90
13880;DHT22;7010;48.200;16.332;2023-03-08T09:57:58;11.50;91.10
13880;DHT22;7010;48.200;16.332;2023-03-08T10:00:31;11.40;91.30
13880;DHT22;7010;48.200;16.332;2023-03-08T10:03:25;11.30;91.20
13880;DHT22;7010;48.200;16.332;2023-03-08T10:06:00;11.20;91.30
13880;DHT22;7010;48.200;16.332;2023-03-08T10:08:34;11.20;91.40
13880;DHT22;7010;48.200;16.332;2023-03-08T10:11:14;11.10;91.40
13880;DHT22;7010;48.200;16.332;2023-03-08T10:13:47;10.90;90.70
13880;DHT22;7010;48.200;16.332;2023-03-08T10:16:24;10.80;91.00
13880;DHT22;7010;48.200;16.332;2023-03-08T10:18:58;10.70;91.50
13880;DHT22;7010;48.200;16.332;2023-03-08T10:21:30;10.60;91.80
13880;DHT22;7010;48.200;16.332;2023-03-08T10:24:03;10.50;91.90
13880;DHT22;7010;48.200;16.332;2023-03-08T10:26:34;10.50;92.40
13880;DHT22;7010;48.200;16.332;2023-03-08T10:29:02;10.40;92.50
13880;DHT22;7010;48.200;16.332;2023-03-08T10:31:31;10.50;92.70
13880;DHT22;7010;48.200;16.332;2023-03-08T10:34:08;10.40;92.90
13880;DHT22;7010;48.200;16.332;2023-03-08T10:36:46;10.40;92.90
13880;DHT22;7010;48.200;16.332;2023-03-08T10:39:15;10.40;93.50
13880;DHT22;7010;48.200;16.332;2023-03-08T10:41:46;10.40;93.60
13880;DHT22;7010;48.200;16.332;2023-03-08T10:44:28;10.40;93.70
13880;DHT22;7010;48.200;16.332;2023-03-08T10:46:56;10.40;94.00
13880;DHT22;7010;48.200;16.332;2023-03-08T10:49:26;10.40;94.20
13880;DHT22;7010;48.200;16.332;2023-03-08T10:51:56;10.40;94.30
13880;DHT22;7010;48.200;16.332;2023-03-08T10:54:26;10.50;94.70
13880;DHT22;7010;48.200;16.332;2023-03-08T10:56:59;10.50;94.80
13880;DHT22;7010;48.200;16.332;2023-03-08T10:59:29;10.50;95.20
13880;DHT22;7010;48.200;16.332;2023-03-08T11:02:00;10.60;95.20
13880;DHT22;7010;48.200;16.332;2023-03-08T11:04:30;10.60;95.30
13880;DHT22;7010;48.200;16.332;2023-03-08T11:07:09;10.60;95.50
13880;DHT22;7010;48.200;16.332;2023-03-08T11:09:38;10.70;95.60
13880;DHT22;7010;48.200;16.332;2023-03-08T11:12:21;10.80;95.80
13880;DHT22;7010;48.200;16.332;2023-03-08T11:14:51;10.90;95.80
13880;DHT22;7010;48.200;16.332;2023-03-08T11:17:25;11.20;95.90
13880;DHT22;7010;48.200;16.332;2023-03-08T11:20:02;11.40;95.50
13880;DHT22;7010;48.200;16.332;2023-03-08T11:23:00;11.60;95.40
13880;DHT22;7010;48.200;16.332;2023-03-08T11:25:35;11.50;95.30
13880;DHT22;7010;48.200;16.332;2023-03-08T11:31:12;11.70;95.50
13880;DHT22;7010;48.200;16.332;2023-03-08T11:36:48;11.50;95.50
13880;DHT22;7010;48.200;16.332;2023-03-08T11:39:24;11.40;95.50
13880;DHT22;7010;48.200;16.332;2023-03-08T11:41:59;11.30;95.50
13880;DHT22;7010;48.200;16.332;2023-03-08T11:44:53;11.30;95.80
13880;DHT22;7010;48.200;16.332;2023-03-08T11:47:40;11.30;95.80
13880;DHT22;7010;48.200;16.332;2023-03-08T11:50:17;11.40;96.10
13880;DHT22;7010;48.200;16.332;2023-03-08T11:53:00;11.30;95.90
13880;DHT22;7010;48.200;16.332;2023-03-08T11:55:38;11.20;95.90
13880;DHT22;7010;48.200;16.332;2023-03-08T11:58:18;11.10;96.00
13880;DHT22;7010;48.200;16.332;2023-03-08T12:00:54;11.10;96.10
13880;DHT22;7010;48.200;16.332;2023-03-08T12:03:27;11.00;96.10
13880;DHT22;7010;48.200;16.332;2023-03-08T12:06:05;10.90;96.30
13880;DHT22;7010;48.200;16.332;2023-03-08T12:08:58;11.00;96.40
13880;DHT22;7010;48.200;16.332;2023-03-08T12:11:31;11.00;96.70
13880;DHT22;7010;48.200;16.332;2023-03-08T12:14:05;10.90;96.80
13880;DHT22;7010;48.200;16.332;2023-03-08T12:16:44;10.90;96.90
13880;DHT22;7010;48.200;16.332;2023-03-08T12:19:22;10.80;97.50
13880;DHT22;7010;48.200;16.332;2023-03-08T12:21:59;10.70;97.70
13880;DHT22;7010;48.200;16.332;2023-03-08T12:24:40;10.70;98.10
13880;DHT22;7010;48.200;16.332;2023-03-08T12:27:15;10.60;98.50
13880;DHT22;7010;48.200;16.332;2023-03-08T12:29:50;10.50;98.80
13880;DHT22;7010;48.200;16.332;2023-03-08T12:32:25;10.50;99.20
13880;DHT22;7010;48.200;16.332;2023-03-08T12:35:01;10.50;99.40
13880;DHT22;7010;48.200;16.332;2023-03-08T12:37:30;10.40;99.90
13880;DHT22;7010;48.200;16.332;2023-03-08T12:40:04;10.40;99.90
13880;DHT22;7010;48.200;16.332;2023-03-08T12:42:36;10.30;99.90
13880;DHT22;7010;48.200;16.332;2023-03-08T12:45:25;10.20;99.90
13880;DHT22;7010;48.200;16.332;2023-03-08T12:47:56;10.20;99.90
13880;DHT22;7010;48.200;16.332;2023-03-08T12:50:28;10.10;99.90
13880;DHT22;7010;48.200;16.332;2023-03-08T12:52:57;10.10;99.90
13880;DHT22;7010;48.200;16.332;2023-03-08T12:55:28;10.00;99.90
13880;DHT22;7010;48.200;16.332;2023-03-08T12:58:00;10.00;99.90
13880;DHT22;7010;48.200;16.332;2023-03-08T13:00:30;10.00;99.90
13880;DHT22;7010;48.200;16.332;2023-03-08T13:03:05;10.10;99.90
13880;DHT22;7010;48.200;16.332;2023-03-08T13:05:36;10.00;99.90
13880;DHT22;7010;48.200;16.332;2023-03-08T13:08:29;10.00;99.90
13880;DHT22;7010;48.200;16.332;2023-03-08T13:11:10;10.00;99.90
13880;DHT22;7010;48.200;16.332;2023-03-08T13:13:47;10.00;99.90
13880;DHT22;7010;48.200;16.332;2023-03-08T13:16:21;10.00;99.90
13880;DHT22;7010;48.200;16.332;2023-03-08T13:19:16;10.10;99.90
13880;DHT22;7010;48.200;16.332;2023-03-08T13:21:52;10.10;99.90
13880;DHT22;7010;48.200;16.332;2023-03-08T13:24:33;10.10;99.90
13880;DHT22;7010;48.200;16.332;2023-03-08T13:27:17;10.10;99.90
13880;DHT22;7010;48.200;16.332;2023-03-08T13:29:49;10.20;99.90
13880;DHT22;7010;48.200;16.332;2023-03-08T13:32:20;10.30;99.90
13880;DHT22;7010;48.200;16.332;2023-03-08T13:35:00;10.40;99.90
13880;DHT22;7010;48.200;16.332;2023-03-08T13:37:29;10.40;99.90
13880;DHT22;7010;48.200;16.332;2023-03-08T13:39:59;10.50;99.90
13880;DHT22;7010;48.200;16.332;2023-03-08T13:42:28;10.70;99.90
13880;DHT22;7010;48.200;16.332;2023-03-08T13:45:07;10.90;99.90
13880;DHT22;7010;48.200;16.332;2023-03-08T13:47:37;11.00;99.90
13880;DHT22;7010;48.200;16.332;2023-03-08T13:50:07;11.00;99.90
13880;DHT22;7010;48.200;16.332;2023-03-08T13:52:44;11.10;99.90
13880;DHT22;7010;48.200;16.332;2023-03-08T13:55:18;11.10;99.90
13880;DHT22;7010;48.200;16.332;2023-03-08T13:57:51;11.10;99.90
13880;DHT22;7010;48.200;16.332;2023-03-08T14:00:29;11.10;99.90
13880;DHT22;7010;48.200;16.332;2023-03-08T14:02:59;11.20;99.90
13880;DHT22;7010;48.200;16.332;2023-03-08T14:05:30;11.30;99.90
13880;DHT22;7010;48.200;16.332;2023-03-08T14:08:01;11.40;99.90
13880;DHT22;7010;48.200;16.332;2023-03-08T14:10:36;11.40;99.90
13880;DHT22;7010;48.200;16.332;2023-03-08T14:13:16;11.40;99.90
13880;DHT22;7010;48.200;16.332;2023-03-08T14:15:53;11.50;99.90
13880;DHT22;7010;48.200;16.332;2023-03-08T14:18:24;11.60;99.90
13880;DHT22;7010;48.200;16.332;2023-03-08T14:21:03;11.60;99.90
13880;DHT22;7010;48.200;16.332;2023-03-08T14:23:36;11.60;99.90
13880;DHT22;7010;48.200;16.332;2023-03-08T14:29:11;11.50;99.90
13880;DHT22;7010;48.200;16.332;2023-03-08T14:31:52;11.50;99.90
13880;DHT22;7010;48.200;16.332;2023-03-08T14:34:23;11.50;99.90
13880;DHT22;7010;48.200;16.332;2023-03-08T14:36:54;11.40;99.90
13880;DHT22;7010;48.200;16.332;2023-03-08T14:39:25;11.40;99.90
13880;DHT22;7010;48.200;16.332;2023-03-08T14:41:54;11.30;99.90
13880;DHT22;7010;48.200;16.332;2023-03-08T14:44:27;11.40;99.90
13880;DHT22;7010;48.200;16.332;2023-03-08T14:47:07;11.40;99.90
13880;DHT22;7010;48.200;16.332;2023-03-08T14:49:35;11.30;99.90
13880;DHT22;7010;48.200;16.332;2023-03-08T14:52:03;11.40;99.90
13880;DHT22;7010;48.200;16.332;2023-03-08T14:54:36;11.40;99.90
13880;DHT22;7010;48.200;16.332;2023-03-08T14:57:14;11.40;99.90
13880;DHT22;7010;48.200;16.332;2023-03-08T14:59:45;11.50;99.90
13880;DHT22;7010;48.200;16.332;2023-03-08T15:02:15;11.50;99.90
13880;DHT22;7010;48.200;16.332;2023-03-08T15:04:44;11.60;99.90
13880;DHT22;7010;48.200;16.332;2023-03-08T15:07:16;11.60;99.90
13880;DHT22;7010;48.200;16.332;2023-03-08T15:09:46;11.70;99.90
13880;DHT22;7010;48.200;16.332;2023-03-08T15:12:15;11.70;99.90
13880;DHT22;7010;48.200;16.332;2023-03-08T15:14:45;11.80;99.90
13880;DHT22;7010;48.200;16.332;2023-03-08T15:17:14;11.80;99.90
13880;DHT22;7010;48.200;16.332;2023-03-08T15:19:42;11.80;99.90
13880;DHT22;7010;48.200;16.332;2023-03-08T15:22:11;11.90;99.90
13880;DHT22;7010;48.200;16.332;2023-03-08T15:24:40;11.90;99.90
13880;DHT22;7010;48.200;16.332;2023-03-08T15:27:13;11.80;99.90
13880;DHT22;7010;48.200;16.332;2023-03-08T15:29:41;11.80;99.90
13880;DHT22;7010;48.200;16.332;2023-03-08T15:32:11;11.80;99.90
13880;DHT22;7010;48.200;16.332;2023-03-08T15:34:39;11.80;99.90
13880;DHT22;7010;48.200;16.332;2023-03-08T15:37:12;11.80;99.90
13880;DHT22;7010;48.200;16.332;2023-03-08T15:39:42;11.80;99.90
13880;DHT22;7010;48.200;16.332;2023-03-08T15:42:10;11.80;99.90
13880;DHT22;7010;48.200;16.332;2023-03-08T15:44:39;11.80;99.90
13880;DHT22;7010;48.200;16.332;2023-03-08T15:47:08;11.80;99.90
13880;DHT22;7010;48.200;16.332;2023-03-08T15:49:38;11.80;99.90
13880;DHT22;7010;48.200;16.332;2023-03-08T15:52:08;11.80;99.90
13880;DHT22;7010;48.200;16.332;2023-03-08T15:54:37;11.80;99.90
13880;DHT22;7010;48.200;16.332;2023-03-08T15:57:06;11.80;99.90
13880;DHT22;7010;48.200;16.332;2023-03-08T15:59:34;11.80;99.90
13880;DHT22;7010;48.200;16.332;2023-03-08T16:02:02;11.80;99.90
13880;DHT22;7010;48.200;16.332;2023-03-08T16:04:31;11.80;99.90
13880;DHT22;7010;48.200;16.332;2023-03-08T16:07:00;11.80;99.90
13880;DHT22;7010;48.200;16.332;2023-03-08T16:09:29;11.70;99.90
13880;DHT22;7010;48.200;16.332;2023-03-08T16:11:57;11.70;99.90
13880;DHT22;7010;48.200;16.332;2023-03-08T16:14:26;11.60;99.90